Airfield :
LOGIN :

Register | Disclaimer

   EN    FR    IT 

 










Legend :    VFR   Marginal VFR   IFR   Intensive IFR   Very Intensive IFR
Visi :
Ceiling :
>= 8 km
>= 3000ft
5 to 8 km
1000 to 3000 ft
1500m to 5 km
500 to 1000 ft
800 to 1500m
200 to 500 ft
< 800m
< 200 ft
Symbols :   Thunderstorms  Fog  Heavy snow  Heavy precipitations  Wind > 20 kt
SIGMETs :     Misc.  Thunderstorms  Icing  Turbulence  Mountain Waves  Volcanic Ashes






- Airport Elevation : 101 ft
- IATA code : GLO


EGBJ - Gloucestershire

CURRENT METAR :
  • 221320Z 22008KT 200V260 9999 SCT040 22/13 Q1011

EXPIRED METARs :
  • 221250Z 21006KT 170V250 9999 FEW040 21/13 Q1011
  • 221220Z 19008KT 150V230 9999 FEW040 21/13 Q1012
  • 221150Z 21006KT 160V270 9999 FEW040 21/13 Q1012
  • 221120Z 21006KT 150V250 9999 FEW028 20/13 Q1012
  • 221050Z 21007KT 170V240 9999 FEW028 19/12 Q1013

TAF TAF EGBJ
Valid from the 22 at 12:00 until the 22 at 19:00 UTC


221100Z 2212/2219 22007KT 9999 FEW035



MET'MAP, your aeronautical weather chart ! - Copyright ORBIFLY December 2007 - Disclaimer

ORBIFLY MET'MAP TEAM :

Programming & Development : Alexandra Zaïnal
Original concept : Baudouin d'Aumeries
Technical & hardware support : Manuel Goepfert
Assistance : Marc-Olivier Méhu

Contact : metmap@orbifly.com




SOURCES & CREDITS :

   NOAA